Time;durP1;ratioP1;P1;durP2;ratioP2;P2;SDS_P1;SDS_P2;PMS_P1;PMS_P2;Temp;Humidity;BMP_temperature;BMP_pressure;BME280_temperature;BME280_humidity;BME280_pressure;Samples;Min_cycle;Max_cycle;Signal;HPM_P1;HPM_P2
2022/02/21 00:00:42;;;;;;;3.83;1.00;;;7.40;96.30;;;;;;5053778;28;20168;-80
2022/02/21 00:03:08;;;;;;;1.60;0.73;;;7.30;96.30;;;;;;5056810;28;20321;-80
2022/02/21 00:05:37;;;;;;;1.83;0.80;;;7.40;96.30;;;;;;5038533;28;20988;-80
2022/02/21 00:08:03;;;;;;;3.17;0.90;;;7.40;96.30;;;;;;5038663;28;20757;-79
2022/02/21 00:10:29;;;;;;;2.20;1.10;;;7.40;96.30;;;;;;5056856;28;20457;-80
2022/02/21 00:12:54;;;;;;;3.43;0.83;;;7.50;96.30;;;;;;5056824;28;20406;-80
2022/02/21 00:15:23;;;;;;;3.30;1.00;;;7.40;96.30;;;;;;5038174;28;20175;-79
2022/02/21 00:17:52;;;;;;;2.40;1.07;;;7.50;96.30;;;;;;5038466;28;20282;-80
2022/02/21 00:20:18;;;;;;;3.37;0.90;;;7.50;96.30;;;;;;5038892;28;20417;-80
2022/02/21 00:22:44;;;;;;;3.77;1.00;;;7.50;96.30;;;;;;5038472;28;20433;-79
2022/02/21 00:25:10;;;;;;;5.13;1.00;;;7.50;96.30;;;;;;5037904;28;20678;-80
2022/02/21 00:27:36;;;;;;;3.13;0.90;;;7.60;96.30;;;;;;5055911;28;20214;-80
2022/02/21 00:30:03;;;;;;;4.53;1.20;;;7.60;96.30;;;;;;5038069;28;20434;-80
2022/02/21 00:32:29;;;;;;;7.60;1.10;;;7.60;96.30;;;;;;5055788;28;20440;-79
2022/02/21 00:34:54;;;;;;;1.17;0.60;;;7.50;96.30;;;;;;5056071;28;20441;-79
2022/02/21 00:37:20;;;;;;;3.87;1.20;;;7.60;96.30;;;;;;5034519;28;20552;-78
2022/02/21 00:39:45;;;;;;;3.20;0.80;;;7.60;96.30;;;;;;5036378;28;20263;-80
2022/02/21 00:42:11;;;;;;;3.90;1.00;;;7.70;96.30;;;;;;5055761;28;20660;-80
2022/02/21 00:44:37;;;;;;;2.77;0.97;;;7.70;96.30;;;;;;5055398;28;20245;-79
2022/02/21 00:47:03;;;;;;;7.30;1.27;;;7.60;96.30;;;;;;5055712;28;20191;-78
2022/02/21 00:49:28;;;;;;;1.10;0.83;;;7.60;96.30;;;;;;5055604;28;20175;-78
2022/02/21 00:51:54;;;;;;;2.40;0.90;;;7.70;96.30;;;;;;5037330;28;20847;-79
2022/02/21 00:54:19;;;;;;;2.40;0.80;;;7.80;96.30;;;;;;5055046;28;20174;-79
2022/02/21 00:56:45;;;;;;;2.73;0.80;;;7.70;96.30;;;;;;5055363;28;20249;-80
2022/02/21 00:59:10;;;;;;;2.80;0.80;;;7.70;96.30;;;;;;5034396;28;20180;-79
2022/02/21 05:02:24;;;;;;;2.60;1.60;;;2.50;96.30;;;;;;5094506;23;20501;-82
2022/02/21 05:04:50;;;;;;;5.07;0.70;;;2.50;96.30;;;;;;5034174;28;20455;-82
2022/02/21 05:07:15;;;;;;;1.37;0.60;;;2.50;96.30;;;;;;5034929;28;20179;-83
2022/02/21 05:09:41;;;;;;;1.93;0.60;;;2.50;96.30;;;;;;5016909;28;20206;-82
2022/02/21 05:12:07;;;;;;;2.03;0.60;;;2.60;96.30;;;;;;5034723;28;20663;-82
2022/02/21 05:14:33;;;;;;;2.87;2.37;;;2.60;96.30;;;;;;5021656;28;20429;-82
2022/02/21 05:16:58;;;;;;;4.03;0.73;;;2.60;96.30;;;;;;5024866;28;20499;-83
2022/02/21 05:19:24;;;;;;;0.90;0.67;;;2.70;96.30;;;;;;5024618;28;20187;-83
2022/02/21 05:21:54;;;;;;;4.97;0.70;;;2.70;96.30;;;;;;5026954;28;20254;-82
2022/02/21 05:24:19;;;;;;;1.73;0.70;;;2.80;96.30;;;;;;5019380;28;20211;-83
2022/02/21 05:26:45;;;;;;;1.47;0.60;;;2.80;96.30;;;;;;5016368;28;20431;-82
2022/02/21 05:29:10;;;;;;;2.60;0.63;;;2.80;96.30;;;;;;5016819;28;20188;-83
2022/02/21 05:31:36;;;;;;;0.80;0.60;;;2.80;96.30;;;;;;5016762;28;20200;-82
2022/02/21 05:34:01;;;;;;;1.00;0.50;;;2.90;96.30;;;;;;5016805;28;20176;-82
2022/02/21 05:36:27;;;;;;;1.00;0.50;;;2.90;96.30;;;;;;5016131;28;20172;-82
2022/02/21 05:38:52;;;;;;;1.20;0.60;;;3.00;96.30;;;;;;5016492;28;20636;-82
2022/02/21 05:41:18;;;;;;;2.40;0.60;;;3.00;96.30;;;;;;5034151;28;20196;-82
2022/02/21 05:43:43;;;;;;;1.20;0.50;;;3.00;96.30;;;;;;5016381;28;20172;-81
2022/02/21 05:46:09;;;;;;;1.10;0.50;;;3.00;96.30;;;;;;5015546;28;20632;-82
2022/02/21 05:48:34;;;;;;;0.90;0.60;;;2.90;96.30;;;;;;5033950;28;20168;-82
2022/02/21 05:51:00;;;;;;;1.10;0.60;;;2.90;96.30;;;;;;5016496;28;20192;-82
2022/02/21 05:53:25;;;;;;;0.83;0.47;;;2.90;96.30;;;;;;5034410;28;20165;-82
2022/02/21 05:55:51;;;;;;;1.00;0.60;;;2.90;96.30;;;;;;5015879;28;20180;-83
2022/02/21 05:58:16;;;;;;;1.77;0.70;;;3.00;96.30;;;;;;5016396;28;20259;-82
2022/02/21 06:00:45;;;;;;;2.23;0.80;;;2.90;96.30;;;;;;5016311;28;20211;-83
2022/02/21 06:03:10;;;;;;;0.90;0.50;;;2.90;96.30;;;;;;5016577;28;20177;-82
2022/02/21 06:05:36;;;;;;;0.80;0.50;;;2.80;96.30;;;;;;5016489;28;20520;-82
2022/02/21 06:08:01;;;;;;;2.23;0.60;;;2.70;96.30;;;;;;5015485;28;20176;-82
2022/02/21 06:10:27;;;;;;;1.93;0.50;;;2.60;96.30;;;;;;5033957;28;20196;-81
2022/02/21 06:12:52;;;;;;;2.20;0.63;;;2.50;96.30;;;;;;5016336;28;20208;-81
2022/02/21 06:15:18;;;;;;;1.67;0.63;;;2.50;96.30;;;;;;5015571;28;20211;-82
2022/02/21 06:17:44;;;;;;;0.93;0.50;;;2.40;96.30;;;;;;5033849;28;20180;-79
2022/02/21 06:20:10;;;;;;;4.53;0.87;;;2.40;96.30;;;;;;5016247;28;20266;-81
2022/02/21 06:22:35;;;;;;;1.10;0.60;;;2.40;96.30;;;;;;5015993;28;20179;-82
2022/02/21 06:25:01;;;;;;;2.10;0.70;;;2.40;96.30;;;;;;5015385;28;20797;-81
2022/02/21 06:27:27;;;;;;;0.93;0.50;;;2.40;96.30;;;;;;5016009;28;20179;-81
2022/02/21 06:29:53;;;;;;;2.30;0.93;;;2.40;96.30;;;;;;5016042;28;20234;-82
2022/02/21 06:32:18;;;;;;;2.10;0.80;;;2.40;96.30;;;;;;5019390;28;20434;-82
2022/02/21 06:34:48;;;;;;;3.60;0.77;;;2.40;96.30;;;;;;5015119;28;20183;-81
2022/02/21 06:37:13;;;;;;;1.10;0.60;;;2.40;96.30;;;;;;5033377;28;20176;-82
2022/02/21 06:39:39;;;;;;;1.30;0.70;;;2.50;96.30;;;;;;5015222;28;21162;-82
2022/02/21 06:42:05;;;;;;;0.90;0.50;;;2.60;96.30;;;;;;5032902;28;20723;-82
2022/02/21 06:44:30;;;;;;;1.33;0.53;;;2.70;96.30;;;;;;5032202;28;20200;-82
2022/02/21 06:46:56;;;;;;;1.37;0.70;;;2.90;96.30;;;;;;5015115;28;20426;-82
2022/02/21 06:49:21;;;;;;;1.93;0.60;;;3.70;96.30;;;;;;5032996;28;20168;-80
2022/02/21 06:51:47;;;;;;;1.83;0.80;;;4.00;96.30;;;;;;5032599;28;20196;-82
2022/02/21 06:54:12;;;;;;;1.47;1.03;;;4.10;96.30;;;;;;5032735;28;20176;-82
2022/02/21 06:56:38;;;;;;;2.40;0.50;;;3.70;96.30;;;;;;5031948;28;20702;-82
2022/02/21 06:59:03;;;;;;;2.10;0.70;;;3.30;96.30;;;;;;5015010;28;20196;-83
2022/02/21 07:01:29;;;;;;;3.60;1.10;;;2.90;96.30;;;;;;5014546;28;20215;-82
2022/02/21 07:03:54;;;;;;;2.17;0.70;;;2.80;96.30;;;;;;5014517;28;20176;-81
2022/02/21 07:06:21;;;;;;;1.00;0.50;;;2.50;96.30;;;;;;5031900;28;20172;-82
2022/02/21 07:08:46;;;;;;;1.87;1.13;;;2.60;96.30;;;;;;5032150;28;20207;-82
2022/02/21 07:11:12;;;;;;;6.00;0.70;;;2.80;96.30;;;;;;5014338;28;20466;-82
2022/02/21 07:13:38;;;;;;;2.37;0.70;;;3.40;96.30;;;;;;5032322;28;20183;-81
2022/02/21 07:16:04;;;;;;;1.00;0.67;;;3.60;96.30;;;;;;5017901;28;20208;-81
2022/02/21 07:18:30;;;;;;;1.73;0.80;;;4.20;96.30;;;;;;5014942;28;20427;-82
2022/02/21 07:20:56;;;;;;;2.50;0.87;;;4.60;96.30;;;;;;5014185;28;20442;-82
2022/02/21 07:23:21;;;;;;;3.13;0.93;;;5.00;96.30;;;;;;5033735;28;20621;-82
2022/02/21 07:25:47;;;;;;;5.33;0.90;;;4.70;96.30;;;;;;5013553;28;20567;-82
2022/02/21 07:28:15;;;;;;;2.10;0.70;;;4.40;96.30;;;;;;5014751;28;20226;-81
2022/02/21 07:30:41;;;;;;;2.30;0.70;;;4.10;96.30;;;;;;5014557;28;20215;-81
2022/02/21 07:33:06;;;;;;;3.67;1.03;;;3.90;96.30;;;;;;5014931;28;20477;-81
2022/02/21 07:35:32;;;;;;;2.20;0.83;;;3.80;96.30;;;;;;5013815;28;20474;-80
2022/02/21 07:37:57;;;;;;;1.80;0.70;;;3.40;96.30;;;;;;5032078;28;20188;-79
2022/02/21 07:40:23;;;;;;;3.93;0.60;;;3.20;96.30;;;;;;5014048;28;20172;-81
2022/02/21 07:42:51;;;;;;;5.33;1.27;;;3.10;96.30;;;;;;5033030;28;20683;-81
2022/02/21 07:45:19;;;;;;;1.40;0.70;;;2.90;96.30;;;;;;5030826;28;20191;-80
2022/02/21 07:47:46;;;;;;;3.40;1.10;;;3.00;96.30;;;;;;5014480;28;20415;-80
2022/02/21 07:50:13;;;;;;;2.57;1.10;;;2.90;96.30;;;;;;5032270;28;20846;-79
2022/02/21 07:52:38;;;;;;;8.00;1.07;;;2.80;96.30;;;;;;5014794;28;20502;-77
2022/02/21 07:55:04;;;;;;;1.63;0.80;;;2.50;96.30;;;;;;5031534;28;20446;-78
2022/02/21 07:57:30;;;;;;;1.73;0.80;;;2.20;96.30;;;;;;5014285;28;20210;-78
2022/02/21 07:59:57;;;;;;;3.60;0.80;;;2.20;96.30;;;;;;5031860;28;20990;-77
2022/02/21 08:02:23;;;;;;;7.37;1.10;;;2.10;96.30;;;;;;5030780;28;20199;-79
2022/02/21 08:04:48;;;;;;;5.63;1.37;;;2.20;96.30;;;;;;5031613;28;20466;-80
2022/02/21 08:07:14;;;;;;;7.20;1.40;;;2.60;96.30;;;;;;5032024;28;20165;-79
2022/02/21 08:09:39;;;;;;;2.47;0.80;;;2.90;96.30;;;;;;5014779;28;20171;-79
2022/02/21 08:12:07;;;;;;;1.83;0.90;;;3.30;96.30;;;;;;5032673;28;20227;-79
2022/02/21 08:14:33;;;;;;;4.30;0.90;;;3.50;96.30;;;;;;5014075;28;20183;-79
2022/02/21 08:16:59;;;;;;;7.87;1.20;;;3.60;96.30;;;;;;5014210;28;20473;-78
2022/02/21 08:19:25;;;;;;;3.30;1.00;;;3.70;96.30;;;;;;5031771;28;20407;-79
2022/02/21 08:21:52;;;;;;;4.73;1.30;;;3.70;96.30;;;;;;5032805;28;20226;-79
2022/02/21 08:24:18;;;;;;;4.20;0.83;;;3.70;96.30;;;;;;5017236;28;20885;-78
2022/02/21 08:26:43;;;;;;;3.30;0.70;;;3.50;96.30;;;;;;5035337;28;20534;-78
2022/02/21 08:29:09;;;;;;;6.33;1.07;;;3.30;96.30;;;;;;5034967;28;20411;-77
2022/02/21 08:31:34;;;;;;;3.47;0.90;;;3.10;96.30;;;;;;5034953;28;20246;-77
2022/02/21 08:34:00;;;;;;;4.17;0.87;;;3.10;96.30;;;;;;5035236;28;20210;-77
2022/02/21 08:36:26;;;;;;;2.23;0.80;;;3.10;96.30;;;;;;5016802;28;20630;-77
2022/02/21 08:38:52;;;;;;;7.50;1.20;;;3.20;96.30;;;;;;5034670;28;20180;-78
2022/02/21 08:41:17;;;;;;;4.50;1.00;;;3.20;96.30;;;;;;5017205;28;20962;-77
2022/02/21 08:43:43;;;;;;;2.10;1.23;;;3.20;96.30;;;;;;5035028;28;20429;-76
2022/02/21 08:46:11;;;;;;;5.13;0.80;;;3.30;96.30;;;;;;5034751;28;20204;-78
2022/02/21 08:48:37;;;;;;;1.27;0.90;;;3.40;96.30;;;;;;5035197;28;20259;-77
2022/02/21 08:51:03;;;;;;;5.83;2.40;;;3.50;96.30;;;;;;5017354;28;20431;-78
2022/02/21 08:53:28;;;;;;;4.20;0.80;;;3.40;96.30;;;;;;5035549;28;21025;-79
2022/02/21 08:55:53;;;;;;;2.70;0.80;;;3.20;96.30;;;;;;5035058;28;20173;-79
2022/02/21 08:58:19;;;;;;;4.20;1.40;;;3.20;96.30;;;;;;5017382;28;20168;-78
2022/02/21 09:00:45;;;;;;;5.67;0.97;;;3.20;96.30;;;;;;5031743;28;20219;-78
2022/02/21 09:03:10;;;;;;;2.50;0.90;;;3.10;96.30;;;;;;5034377;28;20183;-78
2022/02/21 09:05:36;;;;;;;6.50;1.03;;;3.00;96.30;;;;;;5034213;28;20693;-77
2022/02/21 09:08:03;;;;;;;2.03;0.80;;;3.10;96.30;;;;;;5034526;28;20161;-78
2022/02/21 09:10:30;;;;;;;2.00;0.90;;;3.30;96.30;;;;;;5034289;28;20489;-77
2022/02/21 09:12:56;;;;;;;3.00;0.90;;;3.30;96.30;;;;;;5016675;28;20479;-77
2022/02/21 09:15:23;;;;;;;3.03;1.13;;;3.40;96.30;;;;;;5034599;28;20426;-77
2022/02/21 09:17:48;;;;;;;5.70;1.33;;;3.70;96.30;;;;;;5016807;28;20425;-77
2022/02/21 09:20:15;;;;;;;4.20;1.23;;;3.70;96.30;;;;;;5034418;28;20841;-77
2022/02/21 09:22:41;;;;;;;3.07;0.90;;;3.70;96.30;;;;;;5034293;28;20173;-75
2022/02/21 09:25:09;;;;;;;2.97;0.80;;;3.70;96.30;;;;;;5016422;28;20471;-77
2022/02/21 09:27:35;;;;;;;2.23;0.77;;;3.90;96.30;;;;;;5034402;28;20879;-76
2022/02/21 09:30:02;;;;;;;0.90;0.60;;;3.70;96.30;;;;;;5034544;28;20493;-76
2022/02/21 09:32:29;;;;;;;3.67;1.10;;;3.70;96.30;;;;;;5034069;28;20481;-78
2022/02/21 09:34:55;;;;;;;3.57;0.90;;;3.70;96.30;;;;;;5016286;28;20514;-76
2022/02/21 09:37:21;;;;;;;0.97;0.63;;;3.60;96.30;;;;;;5033960;28;21040;-78
2022/02/21 09:39:47;;;;;;;2.60;1.20;;;3.60;96.30;;;;;;5034747;28;20173;-79
2022/02/21 09:42:12;;;;;;;1.20;0.70;;;3.80;96.30;;;;;;5035330;28;20184;-79
2022/02/21 09:44:38;;;;;;;3.53;1.00;;;4.10;96.30;;;;;;5033956;28;20710;-77
2022/02/21 09:47:05;;;;;;;3.43;1.10;;;4.30;96.30;;;;;;5016210;28;20675;-75
2022/02/21 09:49:31;;;;;;;1.13;0.77;;;4.70;96.30;;;;;;5033908;28;20211;-75
2022/02/21 09:51:57;;;;;;;1.80;0.70;;;4.30;96.30;;;;;;5033691;28;20455;-76
2022/02/21 09:54:24;;;;;;;3.53;1.43;;;4.20;96.30;;;;;;5033628;28;20180;-76
2022/02/21 09:56:51;;;;;;;2.20;0.90;;;4.20;96.30;;;;;;5015934;28;20451;-75
2022/02/21 09:59:17;;;;;;;1.30;0.60;;;4.30;96.30;;;;;;5033780;28;20407;-75
2022/02/21 10:01:44;;;;;;;3.37;0.70;;;4.40;96.30;;;;;;5033320;28;20451;-78
2022/02/21 10:04:11;;;;;;;5.00;1.43;;;4.70;96.30;;;;;;5033429;28;20417;-77
2022/02/21 10:06:37;;;;;;;1.83;0.67;;;5.40;96.30;;;;;;5033045;28;20410;-77
2022/02/21 10:09:12;;;;;;;7.00;1.90;;;5.40;96.30;;;;;;5033526;28;20772;-78
2022/02/21 10:11:45;;;;;;;1.53;1.07;;;4.90;96.30;;;;;;5033750;28;20265;-80
2022/02/21 10:14:28;;;;;;;3.40;0.90;;;5.00;96.30;;;;;;5034018;28;20403;-78
2022/02/21 10:16:58;;;;;;;2.67;0.77;;;5.40;96.30;;;;;;5015642;28;20469;-79
2022/02/21 10:19:26;;;;;;;1.67;0.70;;;5.60;96.30;;;;;;5016429;28;20422;-80
2022/02/21 10:22:03;;;;;;;3.53;1.00;;;6.00;96.30;;;;;;5016264;28;20434;-79
2022/02/21 10:24:40;;;;;;;4.40;1.03;;;6.10;96.30;;;;;;5013052;28;20472;-78
2022/02/21 10:27:10;;;;;;;3.00;1.17;;;6.10;96.30;;;;;;5032881;28;20399;-77
2022/02/21 10:29:53;;;;;;;2.00;0.90;;;5.60;96.30;;;;;;5032954;28;20407;-79
2022/02/21 10:32:31;;;;;;;8.30;1.00;;;4.80;96.30;;;;;;5015295;28;20458;-75
2022/02/21 10:35:11;;;;;;;2.63;0.80;;;4.80;96.30;;;;;;5015076;28;20411;-75
2022/02/21 10:37:49;;;;;;;4.97;0.90;;;4.80;96.30;;;;;;5032960;28;20573;-75
2022/02/21 10:40:20;;;;;;;1.77;1.00;;;4.90;96.30;;;;;;5014294;28;21063;-75
2022/02/21 10:43:11;;;;;;;2.87;0.83;;;4.70;96.30;;;;;;5032806;28;20421;-76
2022/02/21 10:45:38;;;;;;;1.50;0.70;;;4.60;96.30;;;;;;5014213;28;21032;-75
2022/02/21 10:48:12;;;;;;;3.50;1.07;;;4.90;96.30;;;;;;5032678;28;20442;-76
2022/02/21 10:50:58;;;;;;;2.60;0.80;;;4.80;96.30;;;;;;5032631;28;20423;-75
2022/02/21 10:53:24;;;;;;;3.03;0.90;;;4.60;96.30;;;;;;5015025;28;20407;-75
2022/02/21 10:55:51;;;;;;;2.60;0.80;;;4.10;96.30;;;;;;5032392;28;20430;-76
2022/02/21 10:58:18;;;;;;;6.00;1.30;;;3.80;96.30;;;;;;5032588;28;20442;-75
2022/02/21 11:00:46;;;;;;;6.30;1.57;;;3.80;96.30;;;;;;5032377;28;21015;-75
2022/02/21 11:03:12;;;;;;;3.60;1.00;;;4.20;96.30;;;;;;5014757;28;20466;-74
2022/02/21 11:05:39;;;;;;;1.40;0.70;;;4.40;96.30;;;;;;5014513;28;20461;-74
2022/02/21 11:08:06;;;;;;;1.83;1.03;;;4.70;96.30;;;;;;5015033;28;20446;-75
2022/02/21 11:10:33;;;;;;;3.60;0.80;;;5.10;96.30;;;;;;5032335;28;21007;-75
2022/02/21 11:12:59;;;;;;;5.17;1.13;;;5.10;96.30;;;;;;5032922;28;20449;-76
2022/02/21 11:15:27;;;;;;;1.77;0.73;;;4.80;96.30;;;;;;5032495;28;20411;-76
2022/02/21 11:17:53;;;;;;;2.33;0.90;;;4.40;96.30;;;;;;5032491;28;20410;-76
2022/02/21 11:28:22;;;;;;;4.37;0.83;;;4.70;96.30;;;;;;5289010;23;20478;-76
2022/02/21 11:30:50;;;;;;;5.70;1.13;;;5.50;96.30;;;;;;5031843;28;20423;-77
2022/02/21 11:33:18;;;;;;;2.70;1.00;;;5.90;96.30;;;;;;5031797;28;20403;-75
2022/02/21 11:36:09;;;;;;;2.50;1.10;;;6.20;96.30;;;;;;5031830;28;20425;-75
2022/02/21 11:38:36;;;;;;;6.40;1.30;;;5.60;96.30;;;;;;5032072;28;20910;-74
2022/02/21 11:41:13;;;;;;;4.03;1.07;;;5.20;96.30;;;;;;5032055;28;20430;-75
2022/02/21 11:43:40;;;;;;;3.00;0.87;;;5.20;96.30;;;;;;5031998;28;20402;-75
2022/02/21 11:46:08;;;;;;;4.83;1.07;;;5.10;96.30;;;;;;5031703;28;20454;-76
2022/02/21 11:48:50;;;;;;;4.27;1.07;;;5.10;96.30;;;;;;5031886;28;20411;-75
2022/02/21 11:51:35;;;;;;;6.03;1.40;;;5.20;96.30;;;;;;5031864;28;20439;-75
2022/02/21 11:54:09;;;;;;;2.77;1.63;;;5.30;96.30;;;;;;5031983;28;20410;-75
2022/02/21 11:56:55;;;;;;;3.17;1.07;;;6.10;96.30;;;;;;5033435;28;20402;-75
2022/02/21 11:59:21;;;;;;;4.37;1.07;;;6.70;96.30;;;;;;5035929;28;20406;-75
2022/02/21 12:02:12;;;;;;;5.43;0.83;;;7.00;96.30;;;;;;5035852;28;20961;-75
2022/02/21 12:04:55;;;;;;;7.33;1.43;;;6.90;96.30;;;;;;5007151;28;20573;-74
2022/02/21 12:07:24;;;;;;;4.57;1.30;;;6.70;96.30;;;;;;5035943;28;20402;-74
2022/02/21 12:10:21;;;;;;;18.33;1.93;;;6.90;96.30;;;;;;5035488;28;20937;-74
2022/02/21 12:12:58;;;;;;;3.03;1.10;;;6.70;96.30;;;;;;5035625;28;20411;-75
2022/02/21 12:15:30;;;;;;;5.30;1.40;;;6.70;96.30;;;;;;5017589;28;20423;-75
2022/02/21 12:18:07;;;;;;;5.60;1.13;;;6.90;96.30;;;;;;5035582;28;20456;-75
2022/02/21 12:20:32;;;;;;;6.43;1.20;;;6.40;96.30;;;;;;5017786;28;20434;-74
2022/02/21 12:23:11;;;;;;;2.50;1.07;;;6.30;96.30;;;;;;5017737;28;20407;-74
2022/02/21 12:25:40;;;;;;;3.03;1.07;;;5.90;96.20;;;;;;5035114;28;20219;-75
2022/02/21 12:28:12;;;;;;;3.23;0.87;;;6.30;96.30;;;;;;5035400;28;20438;-75
2022/02/21 12:30:41;;;;;;;3.20;1.23;;;6.40;96.30;;;;;;5035206;28;20430;-75
2022/02/21 12:33:06;;;;;;;5.13;1.27;;;6.40;96.30;;;;;;5035206;28;20914;-75
2022/02/21 12:35:49;;;;;;;3.90;1.17;;;6.60;96.30;;;;;;5017270;28;20426;-75
2022/02/21 12:38:16;;;;;;;1.97;0.90;;;6.50;96.30;;;;;;5035259;28;20635;-75
2022/02/21 12:41:29;;;;;;;5.10;0.90;;;6.20;96.30;;;;;;5035073;28;20483;-76
2022/02/21 12:43:59;;;;;;;2.30;0.97;;;6.00;96.30;;;;;;4935657;29;20446;-75
2022/02/21 12:46:26;;;;;;;4.57;1.33;;;5.50;96.30;;;;;;4935295;29;20574;-75
2022/02/21 12:48:52;;;;;;;4.27;1.57;;;5.40;96.30;;;;;;4991589;28;20476;-75
2022/02/21 12:51:33;;;;;;;3.23;1.20;;;5.50;96.30;;;;;;5034913;28;20484;-75
2022/02/21 12:54:19;;;;;;;4.87;1.77;;;5.50;96.30;;;;;;5034991;28;20399;-75
2022/02/21 12:56:49;;;;;;;5.13;1.10;;;5.40;96.30;;;;;;5034304;28;20498;-75
2022/02/21 12:59:20;;;;;;;5.53;1.13;;;5.50;96.30;;;;;;5034800;28;20416;-75
2022/02/21 13:01:47;;;;;;;5.27;0.80;;;5.50;96.30;;;;;;5034655;28;20480;-75
2022/02/21 13:04:13;;;;;;;4.10;1.27;;;5.30;96.30;;;;;;5034469;28;20415;-76
2022/02/21 13:06:38;;;;;;;7.03;1.20;;;5.30;96.30;;;;;;5034458;28;20418;-77
2022/02/21 13:09:05;;;;;;;8.17;1.30;;;5.30;96.30;;;;;;5033906;28;20446;-74
2022/02/21 13:11:36;;;;;;;5.77;1.10;;;5.40;96.30;;;;;;5034541;28;20255;-75
2022/02/21 13:14:03;;;;;;;4.60;1.37;;;5.50;96.30;;;;;;5034623;28;20406;-75
2022/02/21 13:16:32;;;;;;;5.43;1.20;;;5.50;96.30;;;;;;5034364;28;20561;-76
2022/02/21 13:19:05;;;;;;;3.67;1.30;;;5.40;96.30;;;;;;5034578;28;20415;-75
2022/02/21 13:21:31;;;;;;;10.00;1.53;;;5.20;96.30;;;;;;5034337;28;20989;-74
2022/02/21 13:23:58;;;;;;;6.23;1.10;;;5.30;96.30;;;;;;5034292;28;20418;-75
2022/02/21 13:26:24;;;;;;;5.83;1.10;;;5.40;96.30;;;;;;5033813;28;20458;-75
2022/02/21 13:28:49;;;;;;;4.90;1.23;;;5.30;96.30;;;;;;5034280;28;20495;-76
2022/02/21 13:31:15;;;;;;;4.50;0.90;;;5.20;96.30;;;;;;5034050;28;20510;-78
2022/02/21 13:33:42;;;;;;;4.77;1.77;;;5.20;96.30;;;;;;5034146;28;20168;-74
2022/02/21 13:36:08;;;;;;;2.93;0.87;;;5.10;96.30;;;;;;5033894;28;20180;-74
2022/02/21 13:38:34;;;;;;;3.87;1.10;;;4.90;96.30;;;;;;5034196;28;20914;-74
2022/02/21 13:41:01;;;;;;;3.83;0.90;;;4.90;96.30;;;;;;5033887;28;20242;-74
2022/02/21 13:43:27;;;;;;;2.93;1.00;;;4.90;96.30;;;;;;5016158;28;20423;-75
2022/02/21 13:45:53;;;;;;;7.30;1.20;;;5.00;96.30;;;;;;5033425;28;20565;-74
2022/02/21 13:48:23;;;;;;;4.20;1.30;;;4.90;96.30;;;;;;5016029;28;20433;-76
2022/02/21 13:50:53;;;;;;;2.73;1.27;;;5.00;96.30;;;;;;5033873;28;20446;-76
2022/02/21 13:53:31;;;;;;;5.30;1.20;;;4.90;96.30;;;;;;5033870;28;20406;-76
2022/02/21 13:56:05;;;;;;;6.50;1.00;;;4.80;96.30;;;;;;5015795;28;20481;-74
2022/02/21 13:58:44;;;;;;;2.57;0.90;;;4.90;96.30;;;;;;5034651;28;20415;-75
2022/02/21 14:01:15;;;;;;;5.70;1.67;;;4.80;96.30;;;;;;5033529;28;20468;-74
2022/02/21 14:03:45;;;;;;;4.00;1.33;;;4.70;96.30;;;;;;5015906;28;20529;-74
2022/02/21 14:06:31;;;;;;;4.87;1.57;;;4.80;96.30;;;;;;5033293;28;20455;-75
2022/02/21 14:08:59;;;;;;;3.53;1.00;;;4.80;96.30;;;;;;5033717;28;20431;-76
2022/02/21 14:11:33;;;;;;;1.67;0.80;;;4.90;96.30;;;;;;5033520;28;21135;-76
2022/02/21 14:14:00;;;;;;;1.57;0.90;;;5.00;96.30;;;;;;5033417;28;20434;-76
2022/02/21 14:16:28;;;;;;;4.27;1.03;;;4.90;96.30;;;;;;5033026;28;20465;-74
2022/02/21 14:18:54;;;;;;;6.57;1.70;;;5.00;96.30;;;;;;5032979;28;20425;-75
2022/02/21 14:21:20;;;;;;;6.03;1.00;;;5.00;96.30;;;;;;5032515;28;20865;-76
2022/02/21 14:23:46;;;;;;;3.80;1.10;;;5.00;96.30;;;;;;5015449;28;20176;-75
2022/02/21 14:26:12;;;;;;;3.37;1.17;;;5.00;96.30;;;;;;5015295;28;20988;-76
2022/02/21 14:28:38;;;;;;;4.60;1.23;;;5.00;96.30;;;;;;5015383;28;20419;-76
2022/02/21 14:31:04;;;;;;;2.67;0.80;;;4.90;96.30;;;;;;5032921;28;20638;-76
2022/02/21 14:33:30;;;;;;;3.50;0.80;;;4.90;96.30;;;;;;5032903;28;20493;-76
2022/02/21 14:35:55;;;;;;;4.60;1.13;;;4.90;96.30;;;;;;5015005;28;20453;-77
2022/02/21 14:38:23;;;;;;;3.03;1.20;;;5.00;96.30;;;;;;5033053;28;20180;-76
2022/02/21 14:40:55;;;;;;;4.03;1.03;;;5.00;96.30;;;;;;5069572;28;20630;-75
2022/02/21 14:43:22;;;;;;;7.33;1.30;;;5.00;96.30;;;;;;5069462;28;20412;-75
2022/02/21 14:45:49;;;;;;;2.83;0.87;;;5.00;96.30;;;;;;5069168;28;20182;-75
2022/02/21 14:48:14;;;;;;;4.03;1.10;;;5.00;96.30;;;;;;5069311;28;20433;-75
2022/02/21 14:50:40;;;;;;;2.33;0.90;;;5.10;96.30;;;;;;5069411;28;20463;-75
2022/02/21 14:53:06;;;;;;;4.73;0.87;;;5.20;96.30;;;;;;5069351;28;20263;-76
2022/02/21 14:55:32;;;;;;;1.40;0.90;;;5.20;95.90;;;;;;5068814;28;20412;-76
2022/02/21 14:58:00;;;;;;;2.80;0.80;;;5.10;93.40;;;;;;5069014;28;20393;-75
2022/02/21 15:00:26;;;;;;;3.30;1.33;;;5.00;94.00;;;;;;5067479;28;20199;-75
2022/02/21 15:02:52;;;;;;;3.80;1.43;;;5.10;94.80;;;;;;5067788;28;20905;-75
2022/02/21 15:05:18;;;;;;;2.40;1.00;;;5.10;94.40;;;;;;5067603;28;20439;-75
2022/02/21 15:07:44;;;;;;;2.40;0.80;;;5.20;94.10;;;;;;5069078;28;20477;-75
2022/02/21 15:10:10;;;;;;;1.87;1.07;;;5.00;94.60;;;;;;5082442;28;20185;-76
2022/02/21 15:12:36;;;;;;;1.40;0.80;;;4.90;93.10;;;;;;5087661;28;20424;-76
2022/02/21 15:15:06;;;;;;;1.60;0.80;;;4.90;94.30;;;;;;5088919;28;20323;-76
2022/02/21 15:17:32;;;;;;;3.07;1.43;;;4.80;95.10;;;;;;5088993;28;20243;-75
2022/02/21 15:19:58;;;;;;;1.97;0.80;;;4.90;95.30;;;;;;5087635;28;20827;-75
2022/02/21 15:22:24;;;;;;;2.23;0.80;;;4.70;96.30;;;;;;5088894;28;20424;-75
2022/02/21 15:24:49;;;;;;;8.23;1.10;;;4.80;96.30;;;;;;5087426;28;20408;-75
2022/02/21 15:27:15;;;;;;;2.70;0.70;;;4.80;95.70;;;;;;5088818;28;20166;-75
2022/02/21 15:29:40;;;;;;;2.40;0.80;;;4.70;96.30;;;;;;5088802;28;20175;-75
2022/02/21 15:32:08;;;;;;;1.87;0.90;;;4.70;96.30;;;;;;5087468;28;21406;-75
2022/02/21 15:34:33;;;;;;;2.10;1.23;;;4.70;96.30;;;;;;5089118;28;20163;-77
2022/02/21 15:36:59;;;;;;;6.93;1.70;;;4.70;96.30;;;;;;5074014;28;20475;-76
2022/02/21 15:39:25;;;;;;;4.37;0.80;;;4.70;96.30;;;;;;5066958;28;20242;-76
2022/02/21 15:41:50;;;;;;;1.60;0.93;;;4.70;96.30;;;;;;5068342;28;20211;-76
2022/02/21 15:44:16;;;;;;;2.60;0.97;;;4.60;96.30;;;;;;5068170;28;20405;-76
2022/02/21 15:46:45;;;;;;;2.40;0.90;;;4.60;96.30;;;;;;5067057;28;20233;-76
2022/02/21 15:49:13;;;;;;;4.50;1.00;;;4.50;96.30;;;;;;5068458;28;20659;-76
2022/02/21 15:51:39;;;;;;;3.80;1.00;;;4.50;96.30;;;;;;5058704;28;20925;-76
2022/02/21 15:54:05;;;;;;;1.77;0.60;;;4.50;96.30;;;;;;5055424;28;20421;-76
2022/02/21 15:56:30;;;;;;;2.50;0.73;;;4.50;96.30;;;;;;5053739;28;20183;-76
2022/02/21 15:58:56;;;;;;;1.93;0.90;;;4.50;96.30;;;;;;5053639;28;20203;-75
2022/02/21 16:01:21;;;;;;;2.70;0.93;;;4.40;96.30;;;;;;5053859;28;20215;-76
2022/02/21 16:03:47;;;;;;;2.70;1.17;;;4.40;96.30;;;;;;5056003;28;20206;-76
2022/02/21 16:06:18;;;;;;;2.73;0.83;;;4.40;96.30;;;;;;5055517;28;20171;-76
2022/02/21 16:08:44;;;;;;;2.73;0.90;;;4.40;96.30;;;;;;5056992;28;20324;-76
2022/02/21 16:11:09;;;;;;;1.67;1.23;;;4.30;96.30;;;;;;5075512;28;20432;-76
2022/02/21 16:13:35;;;;;;;2.50;1.37;;;4.20;96.30;;;;;;5073512;28;20405;-76
2022/02/21 16:16:00;;;;;;;1.63;0.73;;;4.30;96.30;;;;;;5074944;28;20254;-76
2022/02/21 16:18:28;;;;;;;4.10;1.07;;;4.20;96.30;;;;;;5074118;28;20341;-76
2022/02/21 16:20:54;;;;;;;2.20;1.23;;;4.20;96.30;;;;;;5069815;28;20210;-76
2022/02/21 16:23:21;;;;;;;1.67;0.80;;;4.20;96.30;;;;;;5054726;28;20489;-76
2022/02/21 16:25:47;;;;;;;1.87;0.80;;;4.20;96.30;;;;;;5052737;28;20468;-76
2022/02/21 16:28:12;;;;;;;1.30;0.80;;;4.10;96.30;;;;;;5050627;28;20410;-76
2022/02/21 16:30:38;;;;;;;1.30;0.80;;;4.20;96.30;;;;;;5034771;28;20439;-77
2022/02/21 16:33:04;;;;;;;1.10;0.77;;;4.20;96.30;;;;;;5042656;28;20187;-76
2022/02/21 16:35:29;;;;;;;2.23;0.80;;;4.20;96.30;;;;;;5050600;28;20422;-76
2022/02/21 16:37:55;;;;;;;3.10;1.20;;;4.10;96.30;;;;;;5085183;28;20265;-77
2022/02/21 16:40:22;;;;;;;1.20;0.90;;;4.00;96.30;;;;;;5087987;28;20222;-76
2022/02/21 16:42:48;;;;;;;2.10;0.97;;;4.10;96.30;;;;;;5088040;28;20218;-75
2022/02/21 16:45:14;;;;;;;3.87;0.87;;;4.10;96.30;;;;;;5086775;28;20414;-75
2022/02/21 16:47:40;;;;;;;1.63;1.00;;;4.10;96.30;;;;;;5075200;28;20182;-75
2022/02/21 16:50:07;;;;;;;1.53;1.27;;;4.10;96.30;;;;;;5082089;28;20520;-75
2022/02/21 16:52:33;;;;;;;2.63;1.20;;;4.10;96.30;;;;;;5073680;28;20470;-75
2022/02/21 16:54:59;;;;;;;3.80;1.30;;;4.20;96.30;;;;;;5064061;28;21011;-75
2022/02/21 16:57:27;;;;;;;1.97;0.90;;;4.10;96.30;;;;;;5047919;28;20230;-76
2022/02/21 16:59:52;;;;;;;1.53;0.90;;;4.10;96.30;;;;;;5033460;28;20462;-74
2022/02/21 17:02:18;;;;;;;3.33;1.00;;;4.20;96.30;;;;;;5031763;28;20859;-74
2022/02/21 17:04:43;;;;;;;3.77;0.80;;;4.10;96.30;;;;;;5035098;28;20180;-74
2022/02/21 17:07:09;;;;;;;2.37;1.00;;;4.00;96.30;;;;;;5038761;28;20176;-74
2022/02/21 17:09:34;;;;;;;7.10;1.33;;;4.00;96.30;;;;;;5045937;28;20192;-75